sensor_id;sensor_type;location;lat;lon;timestamp;P1;durP1;ratioP1;P2;durP2;ratioP2
77038;SDS011;65970;50.476;4.840;2024-03-02T00:04:15;2.40;;;0.30;;
77038;SDS011;65970;50.476;4.840;2024-03-02T00:09:16;0.10;;;0.10;;
77038;SDS011;65970;50.476;4.840;2024-03-02T00:14:16;0.10;;;0.10;;
77038;SDS011;65970;50.476;4.840;2024-03-02T00:19:17;0.10;;;0.10;;
77038;SDS011;65970;50.476;4.840;2024-03-02T00:24:21;0.20;;;0.10;;
77038;SDS011;65970;50.476;4.840;2024-03-02T00:29:30;0.10;;;0.10;;
77038;SDS011;65970;50.476;4.840;2024-03-02T00:34:31;0.30;;;0.20;;
77038;SDS011;65970;50.476;4.840;2024-03-02T00:39:32;0.10;;;0.10;;
77038;SDS011;65970;50.476;4.840;2024-03-02T00:44:33;0.43;;;0.10;;
77038;SDS011;65970;50.476;4.840;2024-03-02T00:49:34;0.10;;;0.10;;
77038;SDS011;65970;50.476;4.840;2024-03-02T00:54:34;0.00;;;0.00;;
77038;SDS011;65970;50.476;4.840;2024-03-02T00:59:35;0.10;;;0.10;;
77038;SDS011;65970;50.476;4.840;2024-03-02T01:04:35;0.10;;;0.10;;
77038;SDS011;65970;50.476;4.840;2024-03-02T01:09:36;0.20;;;0.10;;
77038;SDS011;65970;50.476;4.840;2024-03-02T01:14:37;0.10;;;0.10;;
77038;SDS011;65970;50.476;4.840;2024-03-02T01:19:37;0.10;;;0.10;;
77038;SDS011;65970;50.476;4.840;2024-03-02T01:24:38;0.90;;;0.10;;
77038;SDS011;65970;50.476;4.840;2024-03-02T01:29:38;0.43;;;0.20;;
77038;SDS011;65970;50.476;4.840;2024-03-02T01:34:39;0.28;;;0.10;;
77038;SDS011;65970;50.476;4.840;2024-03-02T01:39:39;0.00;;;0.00;;
77038;SDS011;65970;50.476;4.840;2024-03-02T01:44:40;0.10;;;0.10;;
77038;SDS011;65970;50.476;4.840;2024-03-02T01:49:40;0.10;;;0.10;;
77038;SDS011;65970;50.476;4.840;2024-03-02T01:54:41;0.13;;;0.13;;
77038;SDS011;65970;50.476;4.840;2024-03-02T01:59:41;0.35;;;0.10;;
77038;SDS011;65970;50.476;4.840;2024-03-02T02:04:42;0.10;;;0.10;;
77038;SDS011;65970;50.476;4.840;2024-03-02T02:09:43;0.20;;;0.20;;
77038;SDS011;65970;50.476;4.840;2024-03-02T02:14:47;0.10;;;0.10;;
77038;SDS011;65970;50.476;4.840;2024-03-02T02:19:48;0.10;;;0.10;;
77038;SDS011;65970;50.476;4.840;2024-03-02T02:24:48;0.40;;;0.20;;
77038;SDS011;65970;50.476;4.840;2024-03-02T02:29:49;0.10;;;0.10;;
77038;SDS011;65970;50.476;4.840;2024-03-02T02:34:52;0.57;;;0.35;;
77038;SDS011;65970;50.476;4.840;2024-03-02T02:44:53;0.10;;;0.10;;
77038;SDS011;65970;50.476;4.840;2024-03-02T02:49:54;0.10;;;0.10;;
77038;SDS011;65970;50.476;4.840;2024-03-02T02:54:55;1.33;;;0.20;;
77038;SDS011;65970;50.476;4.840;2024-03-02T02:59:55;1.55;;;0.10;;
77038;SDS011;65970;50.476;4.840;2024-03-02T03:04:56;0.73;;;0.10;;
77038;SDS011;65970;50.476;4.840;2024-03-02T03:09:56;0.13;;;0.13;;
77038;SDS011;65970;50.476;4.840;2024-03-02T03:14:57;0.70;;;0.20;;
77038;SDS011;65970;50.476;4.840;2024-03-02T03:19:57;0.00;;;0.00;;
77038;SDS011;65970;50.476;4.840;2024-03-02T03:24:58;0.10;;;0.10;;
77038;SDS011;65970;50.476;4.840;2024-03-02T03:29:58;0.38;;;0.15;;
77038;SDS011;65970;50.476;4.840;2024-03-02T03:34:59;0.98;;;0.10;;
77038;SDS011;65970;50.476;4.840;2024-03-02T03:40:00;0.10;;;0.10;;
77038;SDS011;65970;50.476;4.840;2024-03-02T03:45:00;0.10;;;0.10;;
77038;SDS011;65970;50.476;4.840;2024-03-02T03:50:01;0.52;;;0.20;;
77038;SDS011;65970;50.476;4.840;2024-03-02T03:55:02;0.10;;;0.10;;
77038;SDS011;65970;50.476;4.840;2024-03-02T04:00:03;1.05;;;0.28;;
77038;SDS011;65970;50.476;4.840;2024-03-02T04:05:04;0.90;;;0.22;;
77038;SDS011;65970;50.476;4.840;2024-03-02T04:10:06;0.98;;;0.57;;
77038;SDS011;65970;50.476;4.840;2024-03-02T04:15:07;0.55;;;0.20;;
77038;SDS011;65970;50.476;4.840;2024-03-02T04:20:08;0.10;;;0.10;;
77038;SDS011;65970;50.476;4.840;2024-03-02T04:25:09;0.45;;;0.10;;
77038;SDS011;65970;50.476;4.840;2024-03-02T04:30:09;0.13;;;0.10;;
77038;SDS011;65970;50.476;4.840;2024-03-02T04:35:10;0.10;;;0.10;;
77038;SDS011;65970;50.476;4.840;2024-03-02T04:40:11;0.17;;;0.17;;
77038;SDS011;65970;50.476;4.840;2024-03-02T04:45:12;1.25;;;0.30;;
77038;SDS011;65970;50.476;4.840;2024-03-02T04:50:13;0.43;;;0.13;;
77038;SDS011;65970;50.476;4.840;2024-03-02T04:55:13;0.10;;;0.10;;
77038;SDS011;65970;50.476;4.840;2024-03-02T05:00:14;0.20;;;0.20;;
77038;SDS011;65970;50.476;4.840;2024-03-02T05:05:14;1.40;;;0.20;;
77038;SDS011;65970;50.476;4.840;2024-03-02T05:10:15;1.08;;;0.52;;
77038;SDS011;65970;50.476;4.840;2024-03-02T05:15:16;0.47;;;0.30;;
77038;SDS011;65970;50.476;4.840;2024-03-02T05:20:16;1.02;;;0.30;;
77038;SDS011;65970;50.476;4.840;2024-03-02T05:25:17;0.47;;;0.17;;
77038;SDS011;65970;50.476;4.840;2024-03-02T05:30:17;0.28;;;0.20;;
77038;SDS011;65970;50.476;4.840;2024-03-02T05:35:18;0.55;;;0.20;;
77038;SDS011;65970;50.476;4.840;2024-03-02T05:40:18;0.10;;;0.10;;
77038;SDS011;65970;50.476;4.840;2024-03-02T05:45:19;0.10;;;0.10;;
77038;SDS011;65970;50.476;4.840;2024-03-02T05:50:20;0.32;;;0.20;;
77038;SDS011;65970;50.476;4.840;2024-03-02T05:55:20;0.20;;;0.20;;
77038;SDS011;65970;50.476;4.840;2024-03-02T06:00:21;0.20;;;0.20;;
77038;SDS011;65970;50.476;4.840;2024-03-02T06:05:21;1.30;;;0.30;;
77038;SDS011;65970;50.476;4.840;2024-03-02T06:10:22;1.65;;;0.38;;
77038;SDS011;65970;50.476;4.840;2024-03-02T06:15:22;0.32;;;0.30;;
77038;SDS011;65970;50.476;4.840;2024-03-02T06:20:23;0.90;;;0.22;;
77038;SDS011;65970;50.476;4.840;2024-03-02T06:25:23;0.43;;;0.30;;
77038;SDS011;65970;50.476;4.840;2024-03-02T06:30:24;1.70;;;0.30;;
77038;SDS011;65970;50.476;4.840;2024-03-02T06:35:24;0.88;;;0.30;;
77038;SDS011;65970;50.476;4.840;2024-03-02T06:40:25;0.50;;;0.50;;
77038;SDS011;65970;50.476;4.840;2024-03-02T06:45:25;0.50;;;0.30;;
77038;SDS011;65970;50.476;4.840;2024-03-02T06:50:26;1.92;;;0.38;;
77038;SDS011;65970;50.476;4.840;2024-03-02T06:55:26;1.15;;;0.57;;
77038;SDS011;65970;50.476;4.840;2024-03-02T07:00:27;0.50;;;0.40;;
77038;SDS011;65970;50.476;4.840;2024-03-02T07:05:27;0.30;;;0.30;;
77038;SDS011;65970;50.476;4.840;2024-03-02T07:10:28;0.40;;;0.20;;
77038;SDS011;65970;50.476;4.840;2024-03-02T07:15:28;0.73;;;0.40;;
77038;SDS011;65970;50.476;4.840;2024-03-02T07:20:29;0.43;;;0.30;;
77038;SDS011;65970;50.476;4.840;2024-03-02T07:25:29;1.05;;;0.50;;
77038;SDS011;65970;50.476;4.840;2024-03-02T07:30:30;0.52;;;0.25;;
77038;SDS011;65970;50.476;4.840;2024-03-02T07:35:30;1.23;;;0.50;;
77038;SDS011;65970;50.476;4.840;2024-03-02T07:40:31;1.13;;;0.30;;
77038;SDS011;65970;50.476;4.840;2024-03-02T07:45:31;1.23;;;0.38;;
77038;SDS011;65970;50.476;4.840;2024-03-02T07:50:32;0.57;;;0.40;;
77038;SDS011;65970;50.476;4.840;2024-03-02T07:55:33;0.55;;;0.30;;
77038;SDS011;65970;50.476;4.840;2024-03-02T08:00:33;0.43;;;0.20;;
77038;SDS011;65970;50.476;4.840;2024-03-02T08:05:34;0.45;;;0.30;;
77038;SDS011;65970;50.476;4.840;2024-03-02T08:10:34;0.80;;;0.30;;
77038;SDS011;65970;50.476;4.840;2024-03-02T08:15:35;0.30;;;0.30;;
77038;SDS011;65970;50.476;4.840;2024-03-02T08:20:36;0.85;;;0.38;;
77038;SDS011;65970;50.476;4.840;2024-03-02T08:25:36;0.90;;;0.30;;
77038;SDS011;65970;50.476;4.840;2024-03-02T08:30:37;1.73;;;0.40;;
77038;SDS011;65970;50.476;4.840;2024-03-02T08:35:37;0.30;;;0.30;;
77038;SDS011;65970;50.476;4.840;2024-03-02T08:40:38;1.50;;;0.32;;
77038;SDS011;65970;50.476;4.840;2024-03-02T08:45:38;0.20;;;0.20;;
77038;SDS011;65970;50.476;4.840;2024-03-02T08:50:42;1.63;;;0.32;;
77038;SDS011;65970;50.476;4.840;2024-03-02T08:55:43;1.77;;;0.43;;
77038;SDS011;65970;50.476;4.840;2024-03-02T09:00:43;0.47;;;0.32;;
77038;SDS011;65970;50.476;4.840;2024-03-02T09:05:44;0.80;;;0.15;;
77038;SDS011;65970;50.476;4.840;2024-03-02T09:10:45;2.33;;;0.32;;
77038;SDS011;65970;50.476;4.840;2024-03-02T09:15:48;1.00;;;0.43;;
77038;SDS011;65970;50.476;4.840;2024-03-02T09:20:48;1.63;;;0.50;;
77038;SDS011;65970;50.476;4.840;2024-03-02T09:25:49;0.43;;;0.35;;
77038;SDS011;65970;50.476;4.840;2024-03-02T09:30:49;5.60;;;0.50;;
77038;SDS011;65970;50.476;4.840;2024-03-02T09:35:50;0.95;;;0.30;;
77038;SDS011;65970;50.476;4.840;2024-03-02T09:40:50;0.40;;;0.30;;
77038;SDS011;65970;50.476;4.840;2024-03-02T09:45:51;3.88;;;0.32;;
77038;SDS011;65970;50.476;4.840;2024-03-02T09:50:52;0.43;;;0.22;;
77038;SDS011;65970;50.476;4.840;2024-03-02T09:55:52;0.20;;;0.20;;
77038;SDS011;65970;50.476;4.840;2024-03-02T10:00:53;0.40;;;0.20;;
77038;SDS011;65970;50.476;4.840;2024-03-02T10:05:54;2.53;;;0.15;;
77038;SDS011;65970;50.476;4.840;2024-03-02T10:10:55;1.35;;;0.20;;
77038;SDS011;65970;50.476;4.840;2024-03-02T10:15:55;0.13;;;0.13;;
77038;SDS011;65970;50.476;4.840;2024-03-02T10:21:14;0.40;;;0.30;;
77038;SDS011;65970;50.476;4.840;2024-03-02T10:26:18;0.35;;;0.20;;
77038;SDS011;65970;50.476;4.840;2024-03-02T10:31:18;2.38;;;0.50;;
77038;SDS011;65970;50.476;4.840;2024-03-02T10:36:19;0.57;;;0.22;;
77038;SDS011;65970;50.476;4.840;2024-03-02T10:41:23;0.25;;;0.15;;
77038;SDS011;65970;50.476;4.840;2024-03-02T10:46:33;1.40;;;0.40;;
77038;SDS011;65970;50.476;4.840;2024-03-02T10:51:36;0.22;;;0.20;;
77038;SDS011;65970;50.476;4.840;2024-03-02T10:56:40;1.88;;;0.47;;
77038;SDS011;65970;50.476;4.840;2024-03-02T11:01:42;1.15;;;0.22;;
77038;SDS011;65970;50.476;4.840;2024-03-02T11:06:48;1.00;;;0.63;;
77038;SDS011;65970;50.476;4.840;2024-03-02T11:11:54;1.13;;;0.63;;
77038;SDS011;65970;50.476;4.840;2024-03-02T11:17:14;0.20;;;0.13;;
77038;SDS011;65970;50.476;4.840;2024-03-02T11:22:16;4.18;;;0.40;;
77038;SDS011;65970;50.476;4.840;2024-03-02T11:28:00;1.02;;;0.30;;
77038;SDS011;65970;50.476;4.840;2024-03-02T11:32:54;0.75;;;0.30;;
77038;SDS011;65970;50.476;4.840;2024-03-02T11:37:55;3.70;;;0.57;;
77038;SDS011;65970;50.476;4.840;2024-03-02T11:42:56;1.48;;;0.15;;
77038;SDS011;65970;50.476;4.840;2024-03-02T11:47:59;0.20;;;0.20;;
77038;SDS011;65970;50.476;4.840;2024-03-02T11:53:00;1.45;;;0.47;;
77038;SDS011;65970;50.476;4.840;2024-03-02T11:58:02;1.85;;;0.95;;
77038;SDS011;65970;50.476;4.840;2024-03-02T12:03:06;1.27;;;0.30;;
77038;SDS011;65970;50.476;4.840;2024-03-02T12:08:08;0.30;;;0.30;;
77038;SDS011;65970;50.476;4.840;2024-03-02T12:13:09;2.53;;;0.50;;
77038;SDS011;65970;50.476;4.840;2024-03-02T12:18:10;1.50;;;0.30;;
77038;SDS011;65970;50.476;4.840;2024-03-02T12:23:10;0.10;;;0.10;;
77038;SDS011;65970;50.476;4.840;2024-03-02T12:28:11;1.63;;;0.50;;
77038;SDS011;65970;50.476;4.840;2024-03-02T12:33:12;1.38;;;0.22;;
77038;SDS011;65970;50.476;4.840;2024-03-02T12:38:12;0.30;;;0.20;;
77038;SDS011;65970;50.476;4.840;2024-03-02T12:43:14;0.45;;;0.45;;
77038;SDS011;65970;50.476;4.840;2024-03-02T12:48:15;1.45;;;0.43;;
77038;SDS011;65970;50.476;4.840;2024-03-02T12:53:15;1.00;;;0.20;;
77038;SDS011;65970;50.476;4.840;2024-03-02T12:58:19;0.68;;;0.50;;
77038;SDS011;65970;50.476;4.840;2024-03-02T13:03:21;0.30;;;0.28;;
77038;SDS011;65970;50.476;4.840;2024-03-02T13:08:22;0.17;;;0.17;;
77038;SDS011;65970;50.476;4.840;2024-03-02T13:13:22;0.30;;;0.30;;
77038;SDS011;65970;50.476;4.840;2024-03-02T13:18:23;0.73;;;0.20;;
77038;SDS011;65970;50.476;4.840;2024-03-02T13:23:24;0.68;;;0.35;;
77038;SDS011;65970;50.476;4.840;2024-03-02T13:28:24;0.40;;;0.30;;
77038;SDS011;65970;50.476;4.840;2024-03-02T13:33:25;0.20;;;0.20;;
77038;SDS011;65970;50.476;4.840;2024-03-02T13:38:26;0.55;;;0.22;;
77038;SDS011;65970;50.476;4.840;2024-03-02T13:43:26;0.45;;;0.30;;
77038;SDS011;65970;50.476;4.840;2024-03-02T13:48:27;0.88;;;0.30;;
77038;SDS011;65970;50.476;4.840;2024-03-02T13:53:28;0.52;;;0.10;;
77038;SDS011;65970;50.476;4.840;2024-03-02T13:58:28;0.30;;;0.10;;
77038;SDS011;65970;50.476;4.840;2024-03-02T14:03:29;0.45;;;0.45;;
77038;SDS011;65970;50.476;4.840;2024-03-02T14:08:29;0.20;;;0.20;;
77038;SDS011;65970;50.476;4.840;2024-03-02T14:13:30;3.03;;;0.43;;
77038;SDS011;65970;50.476;4.840;2024-03-02T14:18:30;0.47;;;0.30;;
77038;SDS011;65970;50.476;4.840;2024-03-02T14:23:31;0.38;;;0.30;;
77038;SDS011;65970;50.476;4.840;2024-03-02T14:28:31;1.73;;;0.40;;
77038;SDS011;65970;50.476;4.840;2024-03-02T14:33:32;0.20;;;0.20;;
77038;SDS011;65970;50.476;4.840;2024-03-02T14:38:32;0.65;;;0.40;;
77038;SDS011;65970;50.476;4.840;2024-03-02T14:43:33;2.10;;;0.43;;
77038;SDS011;65970;50.476;4.840;2024-03-02T14:48:34;5.20;;;0.30;;
77038;SDS011;65970;50.476;4.840;2024-03-02T14:53:35;0.32;;;0.30;;
77038;SDS011;65970;50.476;4.840;2024-03-02T14:58:36;2.20;;;0.30;;
77038;SDS011;65970;50.476;4.840;2024-03-02T15:03:36;0.52;;;0.35;;
77038;SDS011;65970;50.476;4.840;2024-03-02T15:08:37;0.73;;;0.43;;
77038;SDS011;65970;50.476;4.840;2024-03-02T15:13:38;0.20;;;0.20;;
77038;SDS011;65970;50.476;4.840;2024-03-02T15:18:39;1.65;;;0.50;;
77038;SDS011;65970;50.476;4.840;2024-03-02T15:23:39;1.10;;;0.70;;
77038;SDS011;65970;50.476;4.840;2024-03-02T15:28:40;1.17;;;0.70;;
77038;SDS011;65970;50.476;4.840;2024-03-02T15:33:40;0.68;;;0.47;;
77038;SDS011;65970;50.476;4.840;2024-03-02T15:38:41;1.17;;;0.40;;
77038;SDS011;65970;50.476;4.840;2024-03-02T15:43:41;1.08;;;0.52;;
77038;SDS011;65970;50.476;4.840;2024-03-02T15:48:42;1.15;;;0.63;;
77038;SDS011;65970;50.476;4.840;2024-03-02T15:53:42;1.75;;;0.82;;
77038;SDS011;65970;50.476;4.840;2024-03-02T15:58:43;0.70;;;0.70;;
77038;SDS011;65970;50.476;4.840;2024-03-02T16:03:44;0.45;;;0.40;;
77038;SDS011;65970;50.476;4.840;2024-03-02T16:08:44;1.77;;;0.57;;
77038;SDS011;65970;50.476;4.840;2024-03-02T16:13:45;3.67;;;0.52;;
77038;SDS011;65970;50.476;4.840;2024-03-02T16:18:45;1.23;;;0.57;;
77038;SDS011;65970;50.476;4.840;2024-03-02T16:23:46;0.77;;;0.77;;
77038;SDS011;65970;50.476;4.840;2024-03-02T16:28:46;1.08;;;0.45;;
77038;SDS011;65970;50.476;4.840;2024-03-02T16:33:47;0.65;;;0.65;;
77038;SDS011;65970;50.476;4.840;2024-03-02T16:38:47;0.77;;;0.60;;
77038;SDS011;65970;50.476;4.840;2024-03-02T16:43:48;1.00;;;0.45;;
77038;SDS011;65970;50.476;4.840;2024-03-02T16:48:48;0.77;;;0.50;;
77038;SDS011;65970;50.476;4.840;2024-03-02T16:53:49;1.33;;;0.68;;
77038;SDS011;65970;50.476;4.840;2024-03-02T16:58:49;3.13;;;0.65;;
77038;SDS011;65970;50.476;4.840;2024-03-02T17:03:50;1.02;;;0.50;;
77038;SDS011;65970;50.476;4.840;2024-03-02T17:08:50;1.42;;;0.50;;
77038;SDS011;65970;50.476;4.840;2024-03-02T17:13:51;1.23;;;0.50;;
77038;SDS011;65970;50.476;4.840;2024-03-02T17:18:52;0.88;;;0.52;;
77038;SDS011;65970;50.476;4.840;2024-03-02T17:23:52;1.42;;;0.95;;
77038;SDS011;65970;50.476;4.840;2024-03-02T17:28:53;1.13;;;0.65;;
77038;SDS011;65970;50.476;4.840;2024-03-02T17:33:54;0.32;;;0.32;;
77038;SDS011;65970;50.476;4.840;2024-03-02T17:38:54;0.50;;;0.50;;
77038;SDS011;65970;50.476;4.840;2024-03-02T17:43:55;1.10;;;0.88;;
77038;SDS011;65970;50.476;4.840;2024-03-02T17:48:55;2.75;;;0.85;;
77038;SDS011;65970;50.476;4.840;2024-03-02T17:53:56;1.77;;;1.15;;
77038;SDS011;65970;50.476;4.840;2024-03-02T17:58:56;1.33;;;0.80;;
77038;SDS011;65970;50.476;4.840;2024-03-02T18:03:57;1.88;;;0.98;;
77038;SDS011;65970;50.476;4.840;2024-03-02T18:08:57;2.03;;;0.60;;
77038;SDS011;65970;50.476;4.840;2024-03-02T18:13:58;1.00;;;0.80;;
77038;SDS011;65970;50.476;4.840;2024-03-02T18:18:58;1.65;;;1.08;;
77038;SDS011;65970;50.476;4.840;2024-03-02T18:23:59;1.30;;;0.75;;
77038;SDS011;65970;50.476;4.840;2024-03-02T18:29:00;0.68;;;0.52;;
77038;SDS011;65970;50.476;4.840;2024-03-02T18:34:00;1.42;;;1.00;;
77038;SDS011;65970;50.476;4.840;2024-03-02T18:39:01;1.08;;;0.75;;
77038;SDS011;65970;50.476;4.840;2024-03-02T18:44:01;0.52;;;0.40;;
77038;SDS011;65970;50.476;4.840;2024-03-02T18:49:02;1.27;;;0.52;;
77038;SDS011;65970;50.476;4.840;2024-03-02T18:54:02;0.98;;;0.77;;
77038;SDS011;65970;50.476;4.840;2024-03-02T18:59:03;1.23;;;0.75;;
77038;SDS011;65970;50.476;4.840;2024-03-02T19:04:03;0.70;;;0.70;;
77038;SDS011;65970;50.476;4.840;2024-03-02T19:09:04;0.63;;;0.60;;
77038;SDS011;65970;50.476;4.840;2024-03-02T19:14:05;1.55;;;0.82;;
77038;SDS011;65970;50.476;4.840;2024-03-02T19:19:05;0.90;;;0.60;;
77038;SDS011;65970;50.476;4.840;2024-03-02T19:24:06;3.10;;;0.70;;
77038;SDS011;65970;50.476;4.840;2024-03-02T19:29:06;0.70;;;0.63;;
77038;SDS011;65970;50.476;4.840;2024-03-02T19:34:07;0.95;;;0.50;;
77038;SDS011;65970;50.476;4.840;2024-03-02T19:39:07;0.95;;;0.52;;
77038;SDS011;65970;50.476;4.840;2024-03-02T19:44:08;0.43;;;0.40;;
77038;SDS011;65970;50.476;4.840;2024-03-02T19:49:09;1.02;;;0.52;;
77038;SDS011;65970;50.476;4.840;2024-03-02T19:54:09;1.05;;;0.40;;
77038;SDS011;65970;50.476;4.840;2024-03-02T19:59:10;0.73;;;0.38;;
77038;SDS011;65970;50.476;4.840;2024-03-02T20:04:10;0.30;;;0.30;;
77038;SDS011;65970;50.476;4.840;2024-03-02T20:09:11;0.40;;;0.30;;
77038;SDS011;65970;50.476;4.840;2024-03-02T20:14:11;1.92;;;0.45;;
77038;SDS011;65970;50.476;4.840;2024-03-02T20:19:12;0.22;;;0.22;;
77038;SDS011;65970;50.476;4.840;2024-03-02T20:24:12;0.60;;;0.50;;
77038;SDS011;65970;50.476;4.840;2024-03-02T20:29:13;0.55;;;0.38;;
77038;SDS011;65970;50.476;4.840;2024-03-02T20:34:13;0.45;;;0.40;;
77038;SDS011;65970;50.476;4.840;2024-03-02T20:39:14;1.45;;;0.55;;
77038;SDS011;65970;50.476;4.840;2024-03-02T20:44:14;1.13;;;0.60;;
77038;SDS011;65970;50.476;4.840;2024-03-02T20:49:15;0.55;;;0.55;;
77038;SDS011;65970;50.476;4.840;2024-03-02T20:54:15;3.17;;;0.60;;
77038;SDS011;65970;50.476;4.840;2024-03-02T20:59:16;0.35;;;0.35;;
77038;SDS011;65970;50.476;4.840;2024-03-02T21:04:16;0.65;;;0.50;;
77038;SDS011;65970;50.476;4.840;2024-03-02T21:09:17;1.48;;;0.60;;
77038;SDS011;65970;50.476;4.840;2024-03-02T21:14:18;0.47;;;0.32;;
77038;SDS011;65970;50.476;4.840;2024-03-02T21:19:18;0.73;;;0.40;;
77038;SDS011;65970;50.476;4.840;2024-03-02T21:24:19;0.50;;;0.30;;
77038;SDS011;65970;50.476;4.840;2024-03-02T21:29:19;1.23;;;0.40;;
77038;SDS011;65970;50.476;4.840;2024-03-02T21:34:20;0.52;;;0.45;;
77038;SDS011;65970;50.476;4.840;2024-03-02T21:39:20;0.43;;;0.40;;
77038;SDS011;65970;50.476;4.840;2024-03-02T21:44:21;0.68;;;0.45;;
77038;SDS011;65970;50.476;4.840;2024-03-02T21:49:21;1.30;;;0.65;;
77038;SDS011;65970;50.476;4.840;2024-03-02T21:54:22;1.55;;;1.08;;
77038;SDS011;65970;50.476;4.840;2024-03-02T21:59:22;1.80;;;0.60;;
77038;SDS011;65970;50.476;4.840;2024-03-02T22:04:23;0.63;;;0.30;;
77038;SDS011;65970;50.476;4.840;2024-03-02T22:09:23;0.40;;;0.40;;
77038;SDS011;65970;50.476;4.840;2024-03-02T22:14:24;0.90;;;0.40;;
77038;SDS011;65970;50.476;4.840;2024-03-02T22:19:24;0.63;;;0.38;;
77038;SDS011;65970;50.476;4.840;2024-03-02T22:24:25;0.63;;;0.55;;
77038;SDS011;65970;50.476;4.840;2024-03-02T22:29:25;0.30;;;0.30;;
77038;SDS011;65970;50.476;4.840;2024-03-02T22:34:26;0.40;;;0.40;;
77038;SDS011;65970;50.476;4.840;2024-03-02T22:39:26;1.00;;;0.40;;
77038;SDS011;65970;50.476;4.840;2024-03-02T22:44:27;1.35;;;0.60;;
77038;SDS011;65970;50.476;4.840;2024-03-02T22:49:27;0.90;;;0.47;;
77038;SDS011;65970;50.476;4.840;2024-03-02T22:54:28;0.52;;;0.50;;
77038;SDS011;65970;50.476;4.840;2024-03-02T22:59:28;0.93;;;0.40;;
77038;SDS011;65970;50.476;4.840;2024-03-02T23:04:29;0.50;;;0.50;;
77038;SDS011;65970;50.476;4.840;2024-03-02T23:09:29;1.42;;;0.65;;
77038;SDS011;65970;50.476;4.840;2024-03-02T23:14:30;0.98;;;0.80;;
77038;SDS011;65970;50.476;4.840;2024-03-02T23:19:31;0.50;;;0.30;;
77038;SDS011;65970;50.476;4.840;2024-03-02T23:24:31;0.43;;;0.40;;
77038;SDS011;65970;50.476;4.840;2024-03-02T23:29:32;0.25;;;0.20;;
77038;SDS011;65970;50.476;4.840;2024-03-02T23:34:33;1.05;;;0.47;;
77038;SDS011;65970;50.476;4.840;2024-03-02T23:39:34;0.80;;;0.30;;
77038;SDS011;65970;50.476;4.840;2024-03-02T23:44:35;0.20;;;0.20;;
77038;SDS011;65970;50.476;4.840;2024-03-02T23:49:36;0.77;;;0.40;;
77038;SDS011;65970;50.476;4.840;2024-03-02T23:54:36;0.38;;;0.30;;
77038;SDS011;65970;50.476;4.840;2024-03-02T23:59:37;0.65;;;0.35;;
